createdAt,value
2018-09-25T00:02:30.134Z,1.40
2018-09-25T00:07:29.685Z,1.60
2018-09-25T00:12:29.424Z,1.70
2018-09-25T00:17:29.001Z,1.70
2018-09-25T00:22:28.524Z,1.70
2018-09-25T00:27:28.099Z,1.50
2018-09-25T00:32:27.767Z,1.50
2018-09-25T00:37:27.400Z,1.93
2018-09-25T00:42:27.137Z,1.50
2018-09-25T00:47:26.643Z,1.60
2018-09-25T00:52:26.170Z,1.17
2018-09-25T00:57:25.783Z,1.60
2018-09-25T01:02:25.327Z,1.50
2018-09-25T01:07:25.052Z,1.43
2018-09-25T01:12:24.565Z,1.60
2018-09-25T01:17:24.293Z,1.63
2018-09-25T01:22:23.955Z,1.40
2018-09-25T01:27:23.575Z,1.20
2018-09-25T01:32:23.302Z,1.07
2018-09-25T01:37:22.881Z,1.40
2018-09-25T01:42:22.459Z,1.20
2018-09-25T01:47:22.027Z,1.60
2018-09-25T01:52:21.671Z,1.57
2018-09-25T01:57:21.223Z,1.37
2018-09-25T02:02:20.867Z,1.43
2018-09-25T02:07:20.533Z,1.77
2018-09-25T02:12:20.094Z,1.70
2018-09-25T02:17:19.612Z,1.50
2018-09-25T02:22:19.335Z,1.40
2018-09-25T02:27:18.959Z,1.40
2018-09-25T02:32:18.587Z,1.80
2018-09-25T02:37:19.069Z,1.77
2018-09-25T02:42:18.996Z,1.83
2018-09-25T02:47:18.515Z,1.60
2018-09-25T02:52:18.229Z,1.93
2018-09-25T02:57:17.809Z,1.73
2018-09-25T03:02:17.476Z,1.77
2018-09-25T03:07:17.247Z,1.97
2018-09-25T03:12:16.992Z,1.40
2018-09-25T03:17:16.589Z,1.87
2018-09-25T03:22:16.301Z,1.80
2018-09-25T03:27:16.122Z,1.70
2018-09-25T03:32:15.831Z,1.40
2018-09-25T03:37:15.399Z,1.80
2018-09-25T03:42:15.019Z,1.70
2018-09-25T03:47:14.599Z,1.40
2018-09-25T03:52:14.552Z,1.50
2018-09-25T03:57:14.249Z,1.67
2018-09-25T04:02:13.837Z,2.20
2018-09-25T04:07:13.684Z,1.73
2018-09-25T04:12:13.217Z,1.70
2018-09-25T04:17:12.948Z,1.90
2018-09-25T04:22:12.511Z,1.87
2018-09-25T04:27:12.200Z,1.77
2018-09-25T04:32:12.025Z,1.93
2018-09-25T04:37:11.679Z,1.80
2018-09-25T04:42:11.439Z,1.90
2018-09-25T04:47:11.180Z,4.70
2018-09-25T04:52:10.920Z,2.10
2018-09-25T04:57:10.758Z,1.90
2018-09-25T05:02:10.392Z,2.20
2018-09-25T05:07:10.096Z,1.80
2018-09-25T05:12:09.910Z,2.10
2018-09-25T05:17:09.755Z,2.00
2018-09-25T05:22:09.473Z,2.50
2018-09-25T05:27:09.094Z,2.10
2018-09-25T05:32:08.724Z,2.17
2018-09-25T05:37:08.328Z,2.33
2018-09-25T05:42:08.099Z,3.27
2018-09-25T05:47:07.698Z,2.40
2018-09-25T05:52:09.777Z,2.70
2018-09-25T05:57:09.504Z,2.53
2018-09-25T06:02:09.132Z,2.80
2018-09-25T06:07:09.268Z,2.37
2018-09-25T06:12:09.394Z,2.90
2018-09-25T06:17:09.294Z,2.70
2018-09-25T06:22:09.443Z,3.20
2018-09-25T06:27:09.255Z,3.03
2018-09-25T06:32:09.191Z,3.60
2018-09-25T06:37:09.043Z,3.53
2018-09-25T06:42:08.740Z,3.60
2018-09-25T06:47:08.650Z,3.67
2018-09-25T06:52:08.595Z,4.03
2018-09-25T06:57:08.341Z,3.43
2018-09-25T07:02:08.229Z,3.07
2018-09-25T07:07:08.143Z,3.00
2018-09-25T07:12:08.038Z,3.10
2018-09-25T07:17:08.390Z,3.23
2018-09-25T07:22:20.189Z,3.33
2018-09-25T07:27:20.328Z,3.63
2018-09-25T07:32:20.232Z,3.23
2018-09-25T07:37:20.172Z,2.90
2018-09-25T07:42:20.144Z,2.80
2018-09-25T07:47:21.165Z,3.00
2018-09-25T07:52:21.134Z,3.13
2018-09-25T07:57:35.758Z,2.67
2018-09-25T08:02:35.997Z,2.83
2018-09-25T08:07:36.430Z,2.83
2018-09-25T08:12:36.808Z,2.53
2018-09-25T08:17:37.124Z,2.87
2018-09-25T08:22:39.014Z,2.60
2018-09-25T08:27:39.676Z,2.53
2018-09-25T08:32:42.577Z,2.60
2018-09-25T08:37:43.184Z,2.70
2018-09-25T08:42:43.565Z,2.50
2018-09-25T08:47:43.918Z,2.90
2018-09-25T08:52:44.728Z,2.77
2018-09-25T08:57:48.271Z,3.00
2018-09-25T09:02:49.086Z,2.53
2018-09-25T09:07:50.044Z,2.80
2018-09-25T09:12:51.200Z,2.90
2018-09-25T09:17:51.716Z,3.00
2018-09-25T09:22:53.540Z,2.70
2018-09-25T09:27:53.679Z,3.23
2018-09-25T09:32:53.674Z,2.67
2018-09-25T09:37:53.705Z,2.20
2018-09-25T09:42:53.342Z,2.07
2018-09-25T09:47:55.473Z,2.60
2018-09-25T09:52:55.239Z,2.20
2018-09-25T09:57:55.402Z,2.30
2018-09-25T10:02:55.335Z,1.93
2018-09-25T10:07:55.619Z,2.00
2018-09-25T10:12:55.850Z,2.10
2018-09-25T10:17:58.212Z,2.10
2018-09-25T10:22:58.506Z,2.20
2018-09-25T10:27:58.409Z,2.07
2018-09-25T10:32:58.623Z,2.80
2018-09-25T10:37:59.174Z,2.60
2018-09-25T10:42:59.826Z,2.20
2018-09-25T10:47:59.874Z,2.27
2018-09-25T10:53:01.053Z,2.40
2018-09-25T10:58:03.679Z,2.13
2018-09-25T11:03:04.134Z,1.97
2018-09-25T11:08:04.529Z,2.40
2018-09-25T11:13:04.381Z,1.97
2018-09-25T11:18:04.240Z,2.23
2018-09-25T11:23:04.484Z,2.47
2018-09-25T11:28:05.972Z,2.13
2018-09-25T11:33:05.948Z,2.27
2018-09-25T11:38:05.939Z,1.80
2018-09-25T11:43:09.179Z,2.20
2018-09-25T11:48:16.424Z,2.30
2018-09-25T11:53:16.045Z,1.93
2018-09-25T11:58:17.556Z,2.30
2018-09-25T12:03:17.674Z,2.03
2018-09-25T12:08:17.300Z,2.17
2018-09-25T12:13:16.885Z,1.93
2018-09-25T12:18:16.458Z,1.90
2018-09-25T12:23:16.298Z,2.47
2018-09-25T12:28:15.938Z,1.93
2018-09-25T12:33:16.041Z,2.00
2018-09-25T12:38:21.496Z,1.80
2018-09-25T12:43:31.431Z,1.67
2018-09-25T12:48:40.374Z,1.47
2018-09-25T12:53:40.467Z,1.33
2018-09-25T12:58:40.205Z,1.90
2018-09-25T13:03:39.865Z,1.30
2018-09-25T13:08:39.730Z,1.07
2018-09-25T13:13:39.511Z,1.47
2018-09-25T13:18:39.109Z,1.07
2018-09-25T13:23:38.819Z,1.23
2018-09-25T13:28:38.400Z,1.13
2018-09-25T13:33:38.350Z,1.10
2018-09-25T13:38:38.403Z,1.07
2018-09-25T13:43:38.767Z,1.00
2018-09-25T13:48:38.750Z,1.03
2018-09-25T13:53:38.301Z,0.90
2018-09-25T13:58:39.043Z,1.20
2018-09-25T14:03:38.660Z,1.10
2018-09-25T14:08:38.463Z,1.10
2018-09-25T14:13:38.286Z,1.07
2018-09-25T14:18:38.093Z,0.80
2018-09-25T14:23:37.688Z,0.90
2018-09-25T14:28:37.194Z,0.80
2018-09-25T14:33:36.883Z,1.00
2018-09-25T14:38:36.501Z,0.93
2018-09-25T14:43:36.203Z,1.10
2018-09-25T14:48:35.878Z,0.97
2018-09-25T14:53:35.535Z,0.57
2018-09-25T14:58:35.204Z,0.90
2018-09-25T15:03:34.870Z,0.60
2018-09-25T15:08:35.185Z,1.00
2018-09-25T15:13:34.821Z,0.90
2018-09-25T15:18:34.527Z,0.77
2018-09-25T15:23:34.308Z,1.33
2018-09-25T15:28:34.071Z,0.83
2018-09-25T15:33:34.021Z,0.87
2018-09-25T15:38:33.648Z,0.90
2018-09-25T15:43:33.254Z,0.80
2018-09-25T15:48:32.848Z,0.80
2018-09-25T15:53:32.445Z,0.60
2018-09-25T15:58:32.087Z,1.07
2018-09-25T16:03:31.817Z,0.90
2018-09-25T16:08:31.544Z,0.60
2018-09-25T16:13:31.147Z,0.90
2018-09-25T16:18:30.748Z,0.70
2018-09-25T16:23:30.318Z,0.70
2018-09-25T16:28:30.013Z,0.40
2018-09-25T16:33:29.600Z,1.00
2018-09-25T16:38:29.217Z,0.80
2018-09-25T16:43:28.736Z,0.80
2018-09-25T16:48:28.409Z,0.80
2018-09-25T16:53:27.856Z,0.80
2018-09-25T16:58:27.452Z,0.97
2018-09-25T17:03:27.212Z,1.17
2018-09-25T17:08:26.919Z,1.10
2018-09-25T17:13:26.398Z,1.00
2018-09-25T17:18:26.032Z,0.90
2018-09-25T17:23:25.688Z,1.00
2018-09-25T17:28:25.280Z,1.17
2018-09-25T17:33:24.864Z,1.10
2018-09-25T17:38:24.540Z,1.30
2018-09-25T17:43:24.093Z,1.17
2018-09-25T17:48:23.772Z,1.17
2018-09-25T17:53:23.488Z,1.37
2018-09-25T17:58:23.128Z,0.90
2018-09-25T18:03:22.708Z,1.20
2018-09-25T18:08:22.461Z,1.37
2018-09-25T18:13:22.086Z,1.57
2018-09-25T18:18:21.816Z,1.30
2018-09-25T18:23:21.384Z,1.20
2018-09-25T18:28:21.017Z,1.27
2018-09-25T18:33:20.607Z,1.10
2018-09-25T18:38:20.185Z,1.30
2018-09-25T18:43:19.743Z,1.17
2018-09-25T18:48:19.437Z,1.30
2018-09-25T18:53:18.935Z,1.43
2018-09-25T18:58:18.672Z,1.63
2018-09-25T19:03:18.260Z,1.40
2018-09-25T19:08:17.834Z,1.37
2018-09-25T19:13:17.540Z,1.70
2018-09-25T19:18:17.116Z,1.50
2018-09-25T19:23:16.684Z,1.50
2018-09-25T19:28:16.354Z,1.50
2018-09-25T19:33:15.977Z,1.57
2018-09-25T19:38:15.525Z,1.50
2018-09-25T19:43:14.980Z,1.50
2018-09-25T19:48:14.605Z,1.73
2018-09-25T19:53:14.307Z,1.10
2018-09-25T19:58:14.121Z,1.37
2018-09-25T20:03:13.949Z,1.60
2018-09-25T20:08:13.735Z,1.20
2018-09-25T20:13:13.380Z,1.33
2018-09-25T20:18:12.992Z,1.23
2018-09-25T20:23:12.577Z,1.43
2018-09-25T20:28:12.464Z,1.70
2018-09-25T20:33:12.320Z,1.30
2018-09-25T20:38:12.037Z,1.30
2018-09-25T20:43:12.025Z,1.50
2018-09-25T20:48:11.758Z,1.10
2018-09-25T20:53:11.417Z,1.40
2018-09-25T20:58:11.098Z,1.40
2018-09-25T21:03:10.608Z,1.50
2018-09-25T21:08:10.417Z,1.00
2018-09-25T21:13:10.084Z,1.10
2018-09-25T21:18:09.775Z,1.60
2018-09-25T21:23:09.240Z,1.20
2018-09-25T21:28:08.859Z,1.80
2018-09-25T21:33:08.565Z,1.20
2018-09-25T21:38:08.018Z,1.30
2018-09-25T21:43:07.592Z,1.50
2018-09-25T21:48:07.232Z,1.30
2018-09-25T21:53:06.944Z,1.40
2018-09-25T21:58:06.544Z,1.50
2018-09-25T22:03:06.077Z,1.63
2018-09-25T22:08:05.647Z,1.87
2018-09-25T22:13:05.280Z,1.67
2018-09-25T22:18:04.792Z,1.50
2018-09-25T22:23:04.523Z,1.50
2018-09-25T22:28:04.007Z,1.53
2018-09-25T22:33:03.635Z,1.83
2018-09-25T22:38:03.303Z,1.57
2018-09-25T22:43:02.779Z,1.50
2018-09-25T22:48:02.507Z,1.53
2018-09-25T22:53:02.132Z,1.40
2018-09-25T22:58:01.776Z,1.60
2018-09-25T23:03:01.467Z,1.30
2018-09-25T23:08:01.113Z,1.50
2018-09-25T23:13:00.613Z,1.77
2018-09-25T23:18:00.140Z,1.60
2018-09-25T23:22:59.684Z,1.50
2018-09-25T23:27:59.380Z,1.40
2018-09-25T23:32:58.904Z,1.30
2018-09-25T23:37:58.538Z,1.67
2018-09-25T23:42:58.140Z,1.60
2018-09-25T23:49:59.424Z,1.43
2018-09-25T23:54:58.883Z,1.30
2018-09-25T23:59:59.272Z,1.50
